createdAt,value
2016-04-10T00:00:43.436Z,0
2016-04-10T00:01:43.594Z,0
2016-04-10T00:02:43.457Z,0
2016-04-10T00:03:43.647Z,0
2016-04-10T00:04:43.650Z,0
2016-04-10T00:05:43.668Z,0
2016-04-10T00:06:43.671Z,0
2016-04-10T00:07:44.002Z,0
2016-04-10T00:08:43.708Z,0
2016-04-10T00:09:43.757Z,0
2016-04-10T00:10:43.775Z,0
2016-04-10T00:11:43.762Z,0
2016-04-10T00:12:43.780Z,0
2016-04-10T00:13:43.815Z,0
2016-04-10T00:14:43.832Z,0
2016-04-10T00:15:43.836Z,0
2016-04-10T00:16:43.870Z,0
2016-04-10T00:17:43.872Z,0
2016-04-10T00:18:43.891Z,0
2016-04-10T00:19:43.924Z,0
2016-04-10T00:20:43.912Z,0
2016-04-10T00:21:43.945Z,0
2016-04-10T00:22:43.979Z,0
2016-04-10T00:23:44.013Z,0
2016-04-10T00:24:43.845Z,0
2016-04-10T00:25:44.019Z,0
2016-04-10T00:26:44.037Z,0
2016-04-10T00:27:44.039Z,0
2016-04-10T00:28:44.073Z,0
2016-04-10T00:29:44.092Z,0
2016-04-10T00:30:44.110Z,0
2016-04-10T00:31:43.394Z,0
2016-04-10T00:32:44.163Z,0
2016-04-10T00:33:44.212Z,0
2016-04-10T00:34:44.183Z,0
2016-04-10T00:35:44.249Z,0
2016-04-10T00:36:44.236Z,0
2016-04-10T00:37:44.316Z,0
2016-04-10T00:38:44.305Z,0
2016-04-10T00:39:44.338Z,0
2016-04-10T00:40:44.310Z,0
2016-04-10T00:41:44.312Z,0
2016-04-10T00:42:44.315Z,0
2016-04-10T00:43:43.614Z,0
2016-04-10T00:44:44.351Z,0
2016-04-10T00:45:44.416Z,0
2016-04-10T00:46:43.637Z,0
2016-04-10T00:47:44.468Z,0
2016-04-10T00:48:44.409Z,0
2016-04-10T00:49:44.490Z,0
2016-04-10T00:50:44.445Z,0
2016-04-10T00:51:44.495Z,0
2016-04-10T00:52:44.498Z,0
2016-04-10T00:53:44.579Z,0
2016-04-10T00:54:44.518Z,0
2016-04-10T00:55:44.537Z,0
2016-04-10T00:56:44.555Z,0
2016-04-10T00:57:44.558Z,0
2016-04-10T00:58:44.592Z,0
2016-04-10T00:59:44.610Z,0
2016-04-10T01:00:44.628Z,0
2016-04-10T01:01:44.662Z,0
2016-04-10T01:02:44.650Z,0
2016-04-10T01:03:44.684Z,0
2016-04-10T01:04:44.686Z,0
2016-04-10T01:05:44.746Z,0
2016-04-10T01:06:44.803Z,0
2016-04-10T01:07:45.159Z,0
2016-04-10T01:08:44.906Z,0
2016-04-10T01:09:44.994Z,0
2016-04-10T01:10:45.021Z,0
2016-04-10T01:11:45.084Z,0
2016-04-10T01:12:45.102Z,0
2016-04-10T01:13:45.105Z,0
2016-04-10T01:14:48.152Z,0
2016-04-10T01:15:45.147Z,0
2016-04-10T01:16:45.187Z,0
2016-04-10T01:17:45.210Z,0
2016-04-10T01:18:45.248Z,0
2016-04-10T01:19:45.256Z,0
2016-04-10T01:20:45.262Z,0
2016-04-10T01:21:45.282Z,0
2016-04-10T01:22:45.318Z,0
2016-04-10T01:23:45.338Z,0
2016-04-10T01:24:45.359Z,0
2016-04-10T01:25:45.364Z,0
2016-04-10T01:26:45.412Z,0
2016-04-10T01:27:45.432Z,0
2016-04-10T01:28:45.436Z,0
2016-04-10T01:29:45.455Z,0
2016-04-10T01:30:45.473Z,0
2016-04-10T01:31:45.523Z,0
2016-04-10T01:32:45.526Z,0
2016-04-10T01:33:45.546Z,0
2016-04-10T01:34:45.548Z,0
2016-04-10T01:35:45.598Z,0
2016-04-10T01:36:45.616Z,0
2016-04-10T01:37:45.790Z,0
2016-04-10T01:38:45.591Z,0
2016-04-10T01:39:45.624Z,0
2016-04-10T01:40:45.659Z,0
2016-04-10T01:41:45.645Z,0
2016-04-10T01:42:45.679Z,0
2016-04-10T01:43:45.682Z,0
2016-04-10T01:44:45.700Z,0
2016-04-10T01:45:45.719Z,0
2016-04-10T01:46:45.768Z,0
2016-04-10T01:47:45.771Z,0
2016-04-10T01:48:45.806Z,0
2016-04-10T01:49:46.089Z,0
2016-04-10T01:50:45.811Z,0
2016-04-10T01:51:45.813Z,0
2016-04-10T01:52:45.972Z,0
2016-04-10T01:53:45.865Z,0
2016-04-10T01:54:45.883Z,0
2016-04-10T01:55:45.902Z,0
2016-04-10T01:56:45.920Z,0
2016-04-10T01:57:45.922Z,0
2016-04-10T01:58:45.941Z,0
2016-04-10T01:59:45.960Z,0
2016-04-10T02:00:45.994Z,0
2016-04-10T02:01:45.996Z,0
2016-04-10T02:02:46.014Z,0
2016-04-10T02:03:46.033Z,0
2016-04-10T02:04:46.051Z,0
2016-04-10T02:05:46.054Z,0
2016-04-10T02:06:46.071Z,0
2016-04-10T02:07:46.184Z,0
2016-04-10T02:08:46.110Z,0
2016-04-10T02:09:46.127Z,0
2016-04-10T02:10:46.458Z,0
2016-04-10T02:11:46.179Z,0
2016-04-10T02:12:46.182Z,0
2016-04-10T02:13:46.216Z,0
2016-04-10T02:14:46.234Z,0
2016-04-10T02:15:46.549Z,0
2016-04-10T02:16:46.240Z,0
2016-04-10T02:17:46.273Z,0
2016-04-10T02:18:46.293Z,0
2016-04-10T02:19:46.310Z,0
2016-04-10T02:20:46.329Z,0
2016-04-10T02:21:46.347Z,0
2016-04-10T02:22:46.225Z,0
2016-04-10T02:23:46.665Z,0
2016-04-10T02:24:46.386Z,0
2016-04-10T02:25:46.420Z,0
2016-04-10T02:26:46.438Z,0
2016-04-10T02:27:46.456Z,0
2016-04-10T02:28:46.459Z,0
2016-04-10T02:29:46.494Z,0
2016-04-10T02:30:46.512Z,0
2016-04-10T02:31:46.514Z,0
2016-04-10T02:32:46.532Z,0
2016-04-10T02:33:46.567Z,0
2016-04-10T02:34:46.569Z,0
2016-04-10T02:35:46.588Z,0
2016-04-10T02:36:46.590Z,0
2016-04-10T02:37:46.624Z,0
2016-04-10T02:38:46.643Z,0
2016-04-10T02:39:46.660Z,0
2016-04-10T02:40:46.663Z,0
2016-04-10T02:41:46.682Z,0
2016-04-10T02:42:46.747Z,0
2016-04-10T02:43:46.766Z,0
2016-04-10T02:44:46.768Z,0
2016-04-10T02:45:46.849Z,0
2016-04-10T02:46:46.804Z,0
2016-04-10T02:47:46.854Z,0
2016-04-10T02:48:46.857Z,0
2016-04-10T02:49:46.859Z,0
2016-04-10T02:50:46.862Z,0
2016-04-10T02:51:46.864Z,0
2016-04-10T02:52:46.914Z,0
2016-04-10T02:53:47.183Z,0
2016-04-10T02:54:46.904Z,0
2016-04-10T02:55:46.954Z,0
2016-04-10T02:56:46.941Z,0
2016-04-10T02:57:46.991Z,0
2016-04-10T02:58:46.994Z,0
2016-04-10T02:59:47.027Z,0
2016-04-10T03:00:47.014Z,0
2016-04-10T03:01:47.032Z,0
2016-04-10T03:02:47.050Z,0
2016-04-10T03:03:47.070Z,0
2016-04-10T03:04:47.072Z,0
2016-04-10T03:05:47.105Z,0
2016-04-10T03:06:47.124Z,0
2016-04-10T03:07:47.143Z,0
2016-04-10T03:08:47.289Z,0
2016-04-10T03:09:47.182Z,0
2016-04-10T03:10:47.169Z,0
2016-04-10T03:11:46.453Z,0
2016-04-10T03:12:47.221Z,0
2016-04-10T03:13:47.240Z,0
2016-04-10T03:14:47.242Z,0
2016-04-10T03:15:47.260Z,0
2016-04-10T03:16:46.544Z,0
2016-04-10T03:17:47.313Z,0
2016-04-10T03:18:47.613Z,0
2016-04-10T03:19:47.193Z,0
2016-04-10T03:20:47.352Z,0
2016-04-10T03:21:47.683Z,0
2016-04-10T03:22:47.389Z,0
2016-04-10T03:23:47.407Z,0
2016-04-10T03:24:47.425Z,0
2016-04-10T03:25:47.444Z,0
2016-04-10T03:26:47.462Z,0
2016-04-10T03:27:47.496Z,0
2016-04-10T03:28:47.484Z,0
2016-04-10T03:29:47.501Z,0
2016-04-10T03:30:47.520Z,0
2016-04-10T03:31:47.539Z,0
2016-04-10T03:32:47.556Z,0
2016-04-10T03:33:47.637Z,0
2016-04-10T03:35:01.686Z,0
2016-04-10T03:35:47.611Z,0
2016-04-10T03:36:47.614Z,0
2016-04-10T03:37:47.725Z,0
2016-04-10T03:38:47.651Z,0
2016-04-10T03:39:50.685Z,0
2016-04-10T03:40:47.688Z,0
2016-04-10T03:41:47.831Z,0
2016-04-10T03:42:47.755Z,0
2016-04-10T03:43:47.805Z,0
2016-04-10T03:44:47.791Z,0
2016-04-10T03:45:47.826Z,0
2016-04-10T03:46:47.797Z,0
2016-04-10T03:47:47.863Z,0
2016-04-10T03:48:47.819Z,0
2016-04-10T03:49:47.914Z,0
2016-04-10T03:50:47.871Z,0
2016-04-10T03:51:47.921Z,0
2016-04-10T03:52:47.891Z,0
2016-04-10T03:53:47.957Z,0
2016-04-10T03:54:47.928Z,0
2016-04-10T03:55:47.962Z,0
2016-04-10T03:56:48.902Z,0
2016-04-10T03:57:48.015Z,0
2016-04-10T03:58:47.720Z,0
2016-04-10T03:59:48.034Z,0
2016-04-10T04:00:48.053Z,0
2016-04-10T04:01:47.901Z,0
2016-04-10T04:02:48.075Z,0
2016-04-10T04:03:48.093Z,0
2016-04-10T04:04:48.111Z,0
2016-04-10T04:05:48.130Z,0
2016-04-10T04:06:48.148Z,0
2016-04-10T04:07:48.166Z,0
2016-04-10T04:08:48.184Z,0
2016-04-10T04:09:48.187Z,0
2016-04-10T04:10:48.222Z,0
2016-04-10T04:11:48.225Z,0
2016-04-10T04:12:48.242Z,0
2016-04-10T04:13:48.573Z,0
2016-04-10T04:14:48.482Z,0
2016-04-10T04:15:48.297Z,0
2016-04-10T04:16:48.331Z,0
2016-04-10T04:17:48.333Z,0
2016-04-10T04:18:48.352Z,0
2016-04-10T04:19:48.370Z,0
2016-04-10T04:20:48.388Z,0
2016-04-10T04:21:47.688Z,0
2016-04-10T04:22:48.394Z,0
2016-04-10T04:23:48.429Z,0
2016-04-10T04:24:48.446Z,0
2016-04-10T04:25:48.449Z,0
2016-04-10T04:26:48.499Z,0
2016-04-10T04:27:48.501Z,0
2016-04-10T04:28:48.520Z,0
2016-04-10T04:29:48.585Z,0
2016-04-10T04:30:48.587Z,0
2016-04-10T04:31:48.590Z,0
2016-04-10T04:32:48.593Z,0
2016-04-10T04:33:48.627Z,0
2016-04-10T04:34:47.879Z,0
2016-04-10T04:35:48.976Z,0
2016-04-10T04:36:48.681Z,0
2016-04-10T04:37:48.731Z,0
2016-04-10T04:38:48.687Z,0
2016-04-10T04:39:48.705Z,0
2016-04-10T04:40:48.724Z,0
2016-04-10T04:41:49.055Z,0
2016-04-10T04:42:48.761Z,0
2016-04-10T04:43:48.763Z,0
2016-04-10T04:44:48.796Z,0
2016-04-10T04:45:48.816Z,0
2016-04-10T04:46:48.833Z,0
2016-04-10T04:47:51.835Z,0
2016-04-10T04:48:48.855Z,0
2016-04-10T04:49:48.873Z,0
2016-04-10T04:50:48.896Z,0
2016-04-10T04:51:48.930Z,0
2016-04-10T04:52:48.917Z,5
2016-04-10T04:53:48.935Z,5
2016-04-10T04:54:48.813Z,5
2016-04-10T04:55:48.988Z,5
2016-04-10T04:56:48.990Z,5
2016-04-10T04:57:49.055Z,5
2016-04-10T04:58:49.059Z,5
2016-04-10T04:59:49.092Z,5
2016-04-10T05:00:49.078Z,5
2016-04-10T05:01:49.082Z,5
2016-04-10T05:02:49.100Z,5
2016-04-10T05:03:49.103Z,5
2016-04-10T05:04:49.137Z,5
2016-04-10T05:05:49.155Z,5
2016-04-10T05:06:49.173Z,10
2016-04-10T05:07:49.176Z,10
2016-04-10T05:08:49.194Z,10
2016-04-10T05:09:49.228Z,10
2016-04-10T05:10:49.513Z,10
2016-04-10T05:11:49.249Z,10
2016-04-10T05:12:49.269Z,10
2016-04-10T05:13:49.302Z,10
2016-04-10T05:14:49.305Z,10
2016-04-10T05:15:49.322Z,15
2016-04-10T05:16:49.341Z,15
2016-04-10T05:17:49.359Z,15
2016-04-10T05:18:49.378Z,15
2016-04-10T05:19:49.396Z,15
2016-04-10T05:20:49.398Z,15
2016-04-10T05:21:49.418Z,15
2016-04-10T05:23:03.529Z,15
2016-04-10T05:23:49.453Z,15
2016-04-10T05:24:49.472Z,20
2016-04-10T05:25:49.490Z,20
2016-04-10T05:26:49.509Z,20
2016-04-10T05:27:49.511Z,20
2016-04-10T05:28:49.529Z,20
2016-04-10T05:29:49.564Z,25
2016-04-10T05:30:49.878Z,25
2016-04-10T05:31:49.584Z,25
2016-04-10T05:32:49.900Z,25
2016-04-10T05:33:49.620Z,25
2016-04-10T05:34:49.640Z,25
2016-04-10T05:35:49.658Z,30
2016-04-10T05:36:49.675Z,30
2016-04-10T05:37:49.726Z,30
2016-04-10T05:38:49.728Z,30
2016-04-10T05:39:49.715Z,30
2016-04-10T05:40:49.734Z,35
2016-04-10T05:41:49.767Z,35
2016-04-10T05:42:49.786Z,35
2016-04-10T05:43:49.789Z,35
2016-04-10T05:44:49.854Z,40
2016-04-10T05:45:49.857Z,40
2016-04-10T05:47:04.234Z,40
2016-04-10T05:47:49.862Z,40
2016-04-10T05:48:49.880Z,45
2016-04-10T05:49:50.493Z,45
2016-04-10T05:50:49.199Z,45
2016-04-10T05:51:49.998Z,45
2016-04-10T05:52:49.985Z,50
2016-04-10T05:53:49.987Z,50
2016-04-10T05:54:50.006Z,50
2016-04-10T05:56:50.026Z,55
2016-04-10T05:57:50.046Z,55
2016-04-10T05:58:50.048Z,55
2016-04-10T05:59:50.112Z,55
2016-04-10T06:00:50.084Z,55
2016-04-10T06:01:50.118Z,55
2016-04-10T06:02:50.136Z,60
2016-04-10T06:03:50.139Z,60
2016-04-10T06:04:50.158Z,60
2016-04-10T06:05:50.192Z,60
2016-04-10T06:06:50.194Z,60
2016-04-10T06:07:50.259Z,60
2016-04-10T06:08:50.731Z,60
2016-04-10T06:09:50.264Z,60
2016-04-10T06:10:50.705Z,60
2016-04-10T06:11:50.286Z,60
2016-04-10T06:12:50.304Z,60
2016-04-10T06:13:50.323Z,60
2016-04-10T06:14:50.341Z,60
2016-04-10T06:15:50.358Z,60
2016-04-10T06:16:50.393Z,60
2016-04-10T06:17:50.396Z,60
2016-04-10T06:18:50.398Z,60
2016-04-10T06:19:50.416Z,60
2016-04-10T06:20:50.419Z,60
2016-04-10T06:21:50.454Z,60
2016-04-10T06:22:50.320Z,60
2016-04-10T06:23:50.796Z,60
2016-04-10T06:24:50.350Z,60
2016-04-10T06:25:50.406Z,60
2016-04-10T06:26:50.585Z,60
2016-04-10T06:27:50.557Z,65
2016-04-10T06:28:50.590Z,65
2016-04-10T06:29:50.593Z,65
2016-04-10T06:30:50.596Z,65
2016-04-10T06:31:50.629Z,65
2016-04-10T06:32:50.648Z,70
2016-04-10T06:33:50.666Z,70
2016-04-10T06:34:50.685Z,75
2016-04-10T06:35:50.687Z,75
2016-04-10T06:36:50.706Z,80
2016-04-10T06:37:50.740Z,80
2016-04-10T06:38:50.929Z,85
2016-04-10T06:39:51.072Z,85
2016-04-10T06:40:50.779Z,85
2016-04-10T06:41:50.812Z,90
2016-04-10T06:42:50.815Z,90
2016-04-10T06:43:50.896Z,90
2016-04-10T06:44:50.883Z,90
2016-04-10T06:45:50.933Z,95
2016-04-10T06:46:50.889Z,95
2016-04-10T06:47:51.000Z,95
2016-04-10T06:48:50.925Z,95
2016-04-10T06:49:51.006Z,100
2016-04-10T06:50:50.978Z,100
2016-04-10T06:51:51.339Z,100
2016-04-10T06:52:51.014Z,100
2016-04-10T06:53:51.330Z,100
2016-04-10T06:54:51.050Z,100
2016-04-10T06:55:51.116Z,95
2016-04-10T06:56:51.102Z,95
2016-04-10T06:57:51.153Z,95
2016-04-10T06:58:51.108Z,95
2016-04-10T06:59:51.157Z,95
2016-04-10T07:00:50.989Z,95
2016-04-10T07:01:51.163Z,90
2016-04-10T07:02:51.212Z,90
2016-04-10T07:03:51.232Z,90
2016-04-10T07:04:51.250Z,90
2016-04-10T07:05:51.252Z,90
2016-04-10T07:06:51.270Z,90
2016-04-10T07:07:51.274Z,90
2016-04-10T07:08:51.229Z,90
2016-04-10T07:09:51.309Z,95
2016-04-10T07:10:51.343Z,95
2016-04-10T07:11:51.393Z,100
2016-04-10T07:12:51.395Z,105
2016-04-10T07:13:51.399Z,105
2016-04-10T07:15:05.511Z,110
2016-04-10T07:15:51.451Z,115
2016-04-10T07:16:51.453Z,115
2016-04-10T07:17:51.487Z,115
2016-04-10T07:18:51.490Z,115
2016-04-10T07:19:51.508Z,115
2016-04-10T07:20:51.527Z,110
2016-04-10T07:21:51.545Z,110
2016-04-10T07:22:51.547Z,110
2016-04-10T07:23:51.692Z,105
2016-04-10T07:24:51.585Z,100
2016-04-10T07:25:51.619Z,95
2016-04-10T07:26:50.886Z,95
2016-04-10T07:27:51.639Z,90
2016-04-10T07:28:51.674Z,85
2016-04-10T07:29:51.691Z,85
2016-04-10T07:30:51.710Z,80
2016-04-10T07:31:51.713Z,80
2016-04-10T07:32:51.746Z,80
2016-04-10T07:33:51.750Z,75
2016-04-10T07:34:51.783Z,75
2016-04-10T07:35:51.786Z,80
2016-04-10T07:36:51.820Z,75
2016-04-10T07:37:51.838Z,75
2016-04-10T07:38:51.856Z,70
2016-04-10T07:39:51.875Z,70
2016-04-10T07:40:51.892Z,70
2016-04-10T07:41:51.912Z,65
2016-04-10T07:42:51.945Z,65
2016-04-10T07:43:51.948Z,65
2016-04-10T07:44:51.967Z,65
2016-04-10T07:45:51.984Z,70
2016-04-10T07:46:52.003Z,60
2016-04-10T07:47:52.022Z,60
2016-04-10T07:48:52.056Z,60
2016-04-10T07:49:52.073Z,60
2016-04-10T07:50:52.091Z,60
2016-04-10T07:51:52.125Z,60
2016-04-10T07:52:52.113Z,60
2016-04-10T07:53:52.256Z,60
2016-04-10T07:54:52.150Z,60
2016-04-10T07:55:52.168Z,60
2016-04-10T07:56:52.202Z,60
2016-04-10T07:57:52.205Z,60
2016-04-10T07:58:52.238Z,65
2016-04-10T07:59:52.257Z,65
2016-04-10T08:00:52.260Z,65
2016-04-10T08:01:52.277Z,70
2016-04-10T08:02:52.313Z,75
2016-04-10T08:03:52.330Z,75
2016-04-10T08:04:52.349Z,75
2016-04-10T08:05:52.366Z,80
2016-04-10T08:06:52.385Z,85
2016-04-10T08:07:52.403Z,85
2016-04-10T08:08:52.343Z,90
2016-04-10T08:09:52.440Z,85
2016-04-10T08:10:52.458Z,95
2016-04-10T08:11:52.477Z,90
2016-04-10T08:12:52.510Z,95
2016-04-10T08:13:52.512Z,95
2016-04-10T08:14:52.532Z,100
2016-04-10T08:15:52.550Z,100
2016-04-10T08:16:52.567Z,100
2016-04-10T08:17:52.602Z,100
2016-04-10T08:18:52.620Z,100
2016-04-10T08:19:52.639Z,95
2016-04-10T08:20:52.548Z,95
2016-04-10T08:21:51.925Z,95
2016-04-10T08:22:52.678Z,95
2016-04-10T08:23:52.774Z,95
2016-04-10T08:24:52.714Z,95
2016-04-10T08:25:51.982Z,95
2016-04-10T08:26:52.752Z,100
2016-04-10T08:27:52.769Z,100
2016-04-10T08:28:52.788Z,105
2016-04-10T08:29:52.822Z,110
2016-04-10T08:30:52.840Z,110
2016-04-10T08:31:52.858Z,115
2016-04-10T08:32:52.877Z,125
2016-04-10T08:33:52.145Z,125
2016-04-10T08:34:52.913Z,130
2016-04-10T08:35:52.916Z,135
2016-04-10T08:36:52.934Z,140
2016-04-10T08:37:52.985Z,145
2016-04-10T08:38:52.846Z,150
2016-04-10T08:39:53.004Z,155
2016-04-10T08:40:53.008Z,160
2016-04-10T08:41:53.042Z,160
2016-04-10T08:42:53.059Z,165
2016-04-10T08:43:53.094Z,165
2016-04-10T08:44:53.112Z,165
2016-04-10T08:45:53.131Z,170
2016-04-10T08:46:53.196Z,170
2016-04-10T08:47:53.183Z,175
2016-04-10T08:48:53.419Z,175
2016-04-10T08:49:53.251Z,180
2016-04-10T08:50:53.222Z,180
2016-04-10T08:51:53.271Z,185
2016-04-10T08:52:53.258Z,185
2016-04-10T08:53:53.277Z,185
2016-04-10T08:54:53.295Z,190
2016-04-10T08:55:53.344Z,190
2016-04-10T08:56:53.348Z,195
2016-04-10T08:57:53.381Z,195
2016-04-10T08:58:52.633Z,195
2016-04-10T08:59:53.403Z,195
2016-04-10T09:00:53.421Z,195
2016-04-10T09:01:53.455Z,200
2016-04-10T09:02:53.473Z,200
2016-04-10T09:03:53.491Z,200
2016-04-10T09:04:52.760Z,205
2016-04-10T09:05:53.512Z,205
2016-04-10T09:06:53.546Z,210
2016-04-10T09:07:53.768Z,210
2016-04-10T09:08:53.582Z,210
2016-04-10T09:09:53.602Z,210
2016-04-10T09:10:53.635Z,210
2016-04-10T09:11:53.481Z,215
2016-04-10T09:12:53.671Z,215
2016-04-10T09:13:53.674Z,220
2016-04-10T09:14:53.709Z,225
2016-04-10T09:15:53.726Z,220
2016-04-10T09:16:53.745Z,225
2016-04-10T09:17:53.764Z,225
2016-04-10T09:18:53.781Z,220
2016-04-10T09:19:53.800Z,220
2016-04-10T09:20:53.849Z,215
2016-04-10T09:21:53.853Z,215
2016-04-10T09:22:53.886Z,220
2016-04-10T09:23:53.889Z,220
2016-04-10T09:24:53.923Z,225
2016-04-10T09:25:53.941Z,225
2016-04-10T09:26:54.006Z,230
2016-04-10T09:27:54.008Z,225
2016-04-10T09:28:54.011Z,225
2016-04-10T09:29:54.046Z,225
2016-04-10T09:30:54.095Z,220
2016-04-10T09:31:54.113Z,215
2016-04-10T09:32:54.132Z,205
2016-04-10T09:33:54.182Z,200
2016-04-10T09:34:54.168Z,190
2016-04-10T09:35:54.562Z,185
2016-04-10T09:36:54.190Z,180
2016-04-10T09:37:54.271Z,175
2016-04-10T09:38:54.210Z,175
2016-04-10T09:39:54.276Z,175
2016-04-10T09:40:54.263Z,175
2016-04-10T09:41:54.296Z,175
2016-04-10T09:42:54.299Z,170
2016-04-10T09:43:54.334Z,170
2016-04-10T09:44:54.351Z,175
2016-04-10T09:45:54.354Z,170
2016-04-10T09:46:54.388Z,165
2016-04-10T09:47:54.406Z,165
2016-04-10T09:48:54.425Z,170
2016-04-10T09:49:54.443Z,175
2016-04-10T09:50:54.462Z,175
2016-04-10T09:51:54.480Z,180
2016-04-10T09:52:54.498Z,185
2016-04-10T09:53:54.531Z,190
2016-04-10T09:54:54.566Z,190
2016-04-10T09:55:54.569Z,190
2016-04-10T09:56:54.603Z,195
2016-04-10T09:57:54.606Z,195
2016-04-10T09:58:54.639Z,200
2016-04-10T09:59:54.658Z,205
2016-04-10T10:00:54.691Z,205
2016-04-10T10:01:54.694Z,205
2016-04-10T10:02:54.728Z,205
2016-04-10T10:03:54.730Z,200
2016-04-10T10:04:54.765Z,200
2016-04-10T10:05:54.783Z,200
2016-04-10T10:06:54.817Z,200
2016-04-10T10:07:54.836Z,205
2016-04-10T10:08:54.842Z,215
2016-04-10T10:09:54.876Z,220
2016-04-10T10:10:54.895Z,225
2016-04-10T10:11:54.927Z,230
2016-04-10T10:12:55.019Z,235
2016-04-10T10:13:55.078Z,240
2016-04-10T10:14:55.139Z,245
2016-04-10T10:15:55.200Z,255
2016-04-10T10:16:55.241Z,255
2016-04-10T10:17:55.275Z,245
2016-04-10T10:18:55.308Z,245
2016-04-10T10:19:55.358Z,240
2016-04-10T10:20:55.391Z,240
2016-04-10T10:21:55.278Z,235
2016-04-10T10:22:55.458Z,255
2016-04-10T10:23:55.685Z,240
2016-04-10T10:24:55.505Z,225
2016-04-10T10:25:55.529Z,215
2016-04-10T10:26:55.550Z,210
2016-04-10T10:27:55.586Z,210
2016-04-10T10:28:55.591Z,215
2016-04-10T10:29:55.626Z,210
2016-04-10T10:30:55.647Z,215
2016-04-10T10:31:55.666Z,225
2016-04-10T10:32:55.749Z,245
2016-04-10T10:33:55.767Z,245
2016-04-10T10:34:55.770Z,245
2016-04-10T10:35:55.774Z,245
2016-04-10T10:36:55.043Z,240
2016-04-10T10:37:55.796Z,225
2016-04-10T10:38:55.846Z,230
2016-04-10T10:39:55.849Z,245
2016-04-10T10:40:55.883Z,245
2016-04-10T10:41:55.902Z,235
2016-04-10T10:42:55.904Z,225
2016-04-10T10:43:55.938Z,225
2016-04-10T10:44:55.972Z,225
2016-04-10T10:45:55.991Z,220
2016-04-10T10:46:56.009Z,215
2016-04-10T10:47:56.027Z,230
2016-04-10T10:48:56.046Z,235
2016-04-10T10:49:56.063Z,245
2016-04-10T10:50:56.082Z,250
2016-04-10T10:51:55.366Z,245
2016-04-10T10:52:56.134Z,235
2016-04-10T10:53:56.168Z,235
2016-04-10T10:54:56.186Z,245
2016-04-10T10:55:56.204Z,235
2016-04-10T10:56:56.223Z,230
2016-04-10T10:57:56.225Z,225
2016-04-10T10:58:56.259Z,220
2016-04-10T10:59:56.278Z,225
2016-04-10T11:00:56.312Z,235
2016-04-10T11:01:56.331Z,240
2016-04-10T11:02:56.364Z,240
2016-04-10T11:03:56.382Z,240
2016-04-10T11:04:56.417Z,240
2016-04-10T11:05:56.716Z,240
2016-04-10T11:06:56.437Z,240
2016-04-10T11:07:56.472Z,245
2016-04-10T11:08:56.475Z,245
2016-04-10T11:09:56.493Z,240
2016-04-10T11:10:56.542Z,240
2016-04-10T11:11:56.561Z,240
2016-04-10T11:12:56.564Z,240
2016-04-10T11:13:56.644Z,245
2016-04-10T11:14:56.647Z,245
2016-04-10T11:15:56.680Z,245
2016-04-10T11:16:56.699Z,240
2016-04-10T11:17:56.983Z,245
2016-04-10T11:18:56.735Z,245
2016-04-10T11:19:56.754Z,245
2016-04-10T11:20:56.740Z,245
2016-04-10T11:21:56.774Z,245
2016-04-10T11:22:56.793Z,240
2016-04-10T11:23:56.811Z,235
2016-04-10T11:24:56.846Z,235
2016-04-10T11:25:56.863Z,245
2016-04-10T11:26:56.882Z,240
2016-04-10T11:27:56.900Z,240
2016-04-10T11:28:56.918Z,250
2016-04-10T11:29:56.952Z,245
2016-04-10T11:30:56.970Z,240
2016-04-10T11:31:56.989Z,240
2016-04-10T11:32:57.022Z,245
2016-04-10T11:33:57.041Z,245
2016-04-10T11:34:57.075Z,255
2016-04-10T11:35:57.078Z,260
2016-04-10T11:36:57.095Z,260
2016-04-10T11:37:57.131Z,260
2016-04-10T11:38:57.148Z,260
2016-04-10T11:39:57.167Z,260
2016-04-10T11:40:57.201Z,260
2016-04-10T11:41:57.219Z,260
2016-04-10T11:42:57.237Z,255
2016-04-10T11:43:57.271Z,230
2016-04-10T11:44:57.289Z,230
2016-04-10T11:45:57.308Z,245
2016-04-10T11:46:57.327Z,245
2016-04-10T11:47:57.361Z,230
2016-04-10T11:48:57.378Z,225
2016-04-10T11:49:57.397Z,220
2016-04-10T11:50:57.431Z,215
2016-04-10T11:51:57.449Z,220
2016-04-10T11:52:57.468Z,225
2016-04-10T11:53:57.501Z,245
2016-04-10T11:54:57.519Z,255
2016-04-10T11:55:57.522Z,255
2016-04-10T11:56:57.556Z,250
2016-04-10T11:57:57.574Z,255
2016-04-10T11:58:57.609Z,260
2016-04-10T11:59:57.501Z,260
2016-04-10T12:00:57.645Z,260
2016-04-10T12:01:57.679Z,255
2016-04-10T12:02:57.729Z,255
2016-04-10T12:03:57.748Z,260
2016-04-10T12:04:57.765Z,260
2016-04-10T12:05:57.799Z,255
2016-04-10T12:06:57.051Z,255
2016-04-10T12:07:57.804Z,245
2016-04-10T12:08:57.839Z,235
2016-04-10T12:09:57.841Z,225
2016-04-10T12:10:57.875Z,240
2016-04-10T12:11:57.908Z,260
2016-04-10T12:12:57.958Z,265
2016-04-10T12:13:57.992Z,260
2016-04-10T12:14:57.994Z,255
2016-04-10T12:15:57.983Z,255
2016-04-10T12:16:58.016Z,255
2016-04-10T12:17:58.035Z,260
2016-04-10T12:18:58.069Z,260
2016-04-10T12:19:58.071Z,265
2016-04-10T12:21:12.199Z,265
2016-04-10T12:21:58.123Z,265
2016-04-10T12:22:58.158Z,260
2016-04-10T12:23:58.176Z,260
2016-04-10T12:24:58.350Z,255
2016-04-10T12:25:58.213Z,245
2016-04-10T12:26:58.247Z,225
2016-04-10T12:27:58.265Z,215
2016-04-10T12:28:58.283Z,220
2016-04-10T12:29:58.302Z,235
2016-04-10T12:30:58.320Z,250
2016-04-10T12:31:58.354Z,240
2016-04-10T12:32:58.684Z,235
2016-04-10T12:33:58.390Z,240
2016-04-10T12:34:58.423Z,250
2016-04-10T12:35:58.458Z,255
2016-04-10T12:36:58.476Z,255
2016-04-10T12:37:58.338Z,255
2016-04-10T12:38:58.512Z,250
2016-04-10T12:39:58.922Z,250
2016-04-10T12:40:58.550Z,245
2016-04-10T12:41:58.584Z,250
2016-04-10T12:42:58.602Z,245
2016-04-10T12:43:58.620Z,245
2016-04-10T12:44:58.653Z,240
2016-04-10T12:45:58.500Z,240
2016-04-10T12:46:58.534Z,245
2016-04-10T12:47:58.708Z,245
2016-04-10T12:48:58.727Z,245
2016-04-10T12:49:58.745Z,245
2016-04-10T12:50:58.044Z,250
2016-04-10T12:51:58.797Z,250
2016-04-10T12:52:58.832Z,255
2016-04-10T12:53:58.741Z,250
2016-04-10T12:54:59.025Z,250
2016-04-10T12:55:58.933Z,250
2016-04-10T12:56:58.936Z,245
2016-04-10T12:57:58.939Z,245
2016-04-10T12:58:58.973Z,250
2016-04-10T12:59:58.991Z,245
2016-04-10T13:00:59.009Z,245
2016-04-10T13:01:59.043Z,240
2016-04-10T13:02:59.062Z,245
2016-04-10T13:03:59.079Z,240
2016-04-10T13:04:59.130Z,240
2016-04-10T13:05:59.117Z,240
2016-04-10T13:06:59.151Z,240
2016-04-10T13:07:59.170Z,230
2016-04-10T13:08:59.187Z,235
2016-04-10T13:09:59.565Z,235
2016-04-10T13:10:59.223Z,230
2016-04-10T13:11:59.258Z,230
2016-04-10T13:12:59.292Z,230
2016-04-10T13:13:59.311Z,230
2016-04-10T13:14:59.328Z,235
2016-04-10T13:15:59.347Z,240
2016-04-10T13:16:59.364Z,245
2016-04-10T13:17:59.602Z,245
2016-04-10T13:18:59.433Z,240
2016-04-10T13:19:59.436Z,245
2016-04-10T13:20:59.470Z,240
2016-04-10T13:21:59.488Z,245
2016-04-10T13:22:59.522Z,245
2016-04-10T13:23:59.540Z,240
2016-04-10T13:24:59.668Z,240
2016-04-10T13:25:59.608Z,240
2016-04-10T13:26:59.595Z,240
2016-04-10T13:27:59.644Z,240
2016-04-10T13:28:59.725Z,240
2016-04-10T13:30:13.774Z,245
2016-04-10T13:30:59.699Z,240
2016-04-10T13:31:59.561Z,245
2016-04-10T13:32:59.798Z,240
2016-04-10T13:33:59.785Z,245
2016-04-10T13:34:59.820Z,240
2016-04-10T13:35:59.870Z,240
2016-04-10T13:36:59.887Z,245
2016-04-10T13:37:59.890Z,240
2016-04-10T13:38:59.908Z,235
2016-04-10T13:40:00.083Z,235
2016-04-10T13:40:59.945Z,235
2016-04-10T13:41:59.948Z,235
2016-04-10T13:42:59.981Z,235
2016-04-10T13:43:59.985Z,235
2016-04-10T13:45:00.019Z,230
2016-04-10T13:46:00.053Z,230
2016-04-10T13:47:00.056Z,235
2016-04-10T13:48:00.105Z,235
2016-04-10T13:49:00.108Z,230
2016-04-10T13:50:00.125Z,230
2016-04-10T13:51:00.160Z,230
2016-04-10T13:52:00.178Z,230
2016-04-10T13:53:00.211Z,230
2016-04-10T13:54:00.230Z,235
2016-04-10T13:55:00.388Z,230
2016-04-10T13:56:00.282Z,230
2016-04-10T13:57:00.301Z,230
2016-04-10T13:58:00.193Z,235
2016-04-10T13:59:00.353Z,235
2016-04-10T14:00:00.387Z,235
2016-04-10T14:01:00.405Z,235
2016-04-10T14:02:00.408Z,235
2016-04-10T14:03:00.442Z,235
2016-04-10T14:04:00.460Z,230
2016-04-10T14:05:00.493Z,235
2016-04-10T14:06:00.528Z,230
2016-04-10T14:07:00.531Z,230
2016-04-10T14:08:00.565Z,230
2016-04-10T14:09:00.583Z,230
2016-04-10T14:10:01.211Z,230
2016-04-10T14:11:00.634Z,230
2016-04-10T14:12:00.653Z,230
2016-04-10T14:13:00.531Z,230
2016-04-10T14:14:00.705Z,230
2016-04-10T14:15:00.708Z,230